Wetterdaten: Woche 01.06.15 - 07.06.15 (KW23)
Datum Zeit Temp. A. Feuchte A. Luftdruck Regen Wind Richtung Sonnenschein ET UV Solar Taupunkt Windchill Windben
01.06.2015 00:00 10,3 C 89 % 1014,7 hPa 0,0 l/m 0,0 km/h (0 Bft) N 0,00 h 0,000 mm 0,0 UV-I 0 W/m 8,6 C 10,3 C 0,0 km/h (0 Bft)
01.06.2015 01:00 9,9 C 91 % 1014,8 hPa 0,0 l/m 0,0 km/h (0 Bft) N 0,00 h 0,000 mm 0,0 UV-I 0 W/m 8,5 C 9,9 C 0,0 km/h (0 Bft)
01.06.2015 02:00 9,7 C 92 % 1014,9 hPa 0,0 l/m 0,0 km/h (0 Bft) N 0,00 h 0,000 mm 0,0 UV-I 0 W/m 8,5 C 9,7 C 0,1 km/h (0 Bft)
01.06.2015 03:00 9,8 C 92 % 1014,7 hPa 0,0 l/m 0,0 km/h (0 Bft) N 0,00 h 0,000 mm 0,0 UV-I 0 W/m 8,5 C 9,8 C 0,2 km/h (0 Bft)
01.06.2015 04:00 9,6 C 92 % 1014,8 hPa 0,0 l/m 0,0 km/h (0 Bft) N 0,00 h 0,000 mm 0,0 UV-I 0 W/m 8,4 C 9,6 C 0,0 km/h (0 Bft)
01.06.2015 05:00 10,1 C 93 % 1014,9 hPa 0,0 l/m 0,0 km/h (0 Bft) N 0,00 h 0,000 mm 0,0 UV-I 11 W/m 9,0 C 10,1 C 0,2 km/h (0 Bft)
01.06.2015 06:00 11,2 C 92 % 1015,0 hPa 0,0 l/m 0,0 km/h (0 Bft) N 0,25 h 0,000 mm 0,0 UV-I 39 W/m 9,9 C 11,2 C 0,0 km/h (0 Bft)
01.06.2015 07:00 13,4 C 86 % 1015,4 hPa 0,0 l/m 0,3 km/h (0 Bft) N 0,40 h 0,025 mm 0,0 UV-I 46 W/m 11,0 C 13,4 C 1,6 km/h (1 Bft)
01.06.2015 08:00 14,6 C 82 % 1015,7 hPa 0,0 l/m 1,1 km/h (1 Bft) S 1,00 h 0,025 mm 0,7 UV-I 103 W/m 11,5 C 14,6 C 3,9 km/h (1 Bft)
01.06.2015 09:00 15,6 C 80 % 1015,8 hPa 0,0 l/m 2,2 km/h (1 Bft) S 1,00 h 0,051 mm 1,4 UV-I 205 W/m 12,1 C 15,6 C 6,4 km/h (2 Bft)
01.06.2015 10:00 16,8 C 76 % 1015,9 hPa 0,0 l/m 4,8 km/h (1 Bft) SW 1,00 h 0,127 mm 1,9 UV-I 261 W/m 12,6 C 16,4 C 9,7 km/h (2 Bft)
01.06.2015 11:00 17,9 C 71 % 1015,8 hPa 0,0 l/m 6,1 km/h (2 Bft) W-SW 1,00 h 0,152 mm 3,6 UV-I 423 W/m 12,5 C 17,2 C 13,0 km/h (3 Bft)
01.06.2015 12:00 19,1 C 67 % 1015,8 hPa 0,0 l/m 7,7 km/h (2 Bft) W-SW 1,00 h 0,279 mm 4,6 UV-I 548 W/m 12,9 C 18,2 C 15,3 km/h (3 Bft)
01.06.2015 13:00 20,5 C 63 % 1015,4 hPa 0,0 l/m 7,2 km/h (2 Bft) W-SW 1,00 h 0,356 mm 6,0 UV-I 794 W/m 13,1 C 19,8 C 15,1 km/h (3 Bft)
01.06.2015 14:00 21,6 C 59 % 1015,0 hPa 0,0 l/m 6,9 km/h (2 Bft) SW 1,00 h 0,483 mm 4,6 UV-I 626 W/m 13,3 C 21,1 C 14,7 km/h (3 Bft)
01.06.2015 15:00 21,5 C 60 % 1014,6 hPa 0,0 l/m 7,2 km/h (2 Bft) W-SW 1,00 h 0,406 mm 2,8 UV-I 383 W/m 13,4 C 20,9 C 13,3 km/h (3 Bft)
01.06.2015 16:00 20,4 C 71 % 1014,4 hPa 0,0 l/m 1,5 km/h (1 Bft) N 1,00 h 0,279 mm 1,9 UV-I 276 W/m 14,9 C 20,3 C 3,7 km/h (1 Bft)
01.06.2015 17:00 19,1 C 73 % 1014,8 hPa 0,0 l/m 7,4 km/h (2 Bft) W-NW 1,00 h 0,178 mm 0,8 UV-I 100 W/m 13,9 C 18,1 C 13,1 km/h (3 Bft)
01.06.2015 18:00 16,3 C 91 % 1015,6 hPa 1,4 l/m 2,9 km/h (1 Bft) W 0,62 h 0,102 mm 0,5 UV-I 52 W/m 14,8 C 16,1 C 7,3 km/h (2 Bft)
01.06.2015 19:00 14,7 C 92 % 1016,3 hPa 0,0 l/m 5,1 km/h (1 Bft) NW 0,28 h 0,025 mm 0,0 UV-I 41 W/m 13,4 C 14,1 C 10,2 km/h (2 Bft)
01.06.2015 20:00 13,6 C 93 % 1015,9 hPa 0,0 l/m 0,1 km/h (0 Bft) N 0,00 h 0,025 mm 0,0 UV-I 14 W/m 12,5 C 13,6 C 0,3 km/h (0 Bft)
01.06.2015 21:00 12,9 C 94 % 1016,4 hPa 0,0 l/m 0,0 km/h (0 Bft) N 0,00 h 0,000 mm 0,0 UV-I 5 W/m 12,0 C 12,9 C 0,0 km/h (0 Bft)
01.06.2015 22:00 11,9 C 96 % 1016,7 hPa 0,0 l/m 0,0 km/h (0 Bft) N 0,00 h 0,000 mm 0,0 UV-I 0 W/m 11,2 C 11,9 C 0,0 km/h (0 Bft)
01.06.2015 23:00 11,0 C 97 % 1016,9 hPa 0,0 l/m 0,0 km/h (0 Bft) N 0,00 h 0,000 mm 0,0 UV-I 0 W/m 10,5 C 11,0 C 0,0 km/h (0 Bft)
02.06.2015 00:00 10,3 C 97 % 1017,2 hPa 0,0 l/m 0,0 km/h (0 Bft) N 0,00 h 0,000 mm 0,0 UV-I 0 W/m 9,8 C 10,3 C 0,0 km/h (0 Bft)
02.06.2015 01:00 9,6 C 97 % 1017,2 hPa 0,0 l/m 0,0 km/h (0 Bft) N 0,00 h 0,000 mm 0,0 UV-I 0 W/m 9,2 C 9,6 C 0,1 km/h (0 Bft)
02.06.2015 02:00 9,1 C 97 % 1017,2 hPa 0,0 l/m 0,0 km/h (0 Bft) N 0,00 h 0,000 mm 0,0 UV-I 0 W/m 8,6 C 9,1 C 0,0 km/h (0 Bft)
02.06.2015 03:00 9,2 C 97 % 1016,9 hPa 0,0 l/m 0,1 km/h (0 Bft) N 0,00 h 0,000 mm 0,0 UV-I 0 W/m 8,9 C 9,2 C 0,3 km/h (0 Bft)
02.06.2015 04:00 10,1 C 98 % 1016,7 hPa 0,0 l/m 0,0 km/h (0 Bft) N 0,00 h 0,000 mm 0,0 UV-I 0 W/m 9,8 C 10,1 C 0,1 km/h (0 Bft)
02.06.2015 05:00 10,1 C 97 % 1016,8 hPa 0,0 l/m 0,2 km/h (0 Bft) N 0,00 h 0,000 mm 0,0 UV-I 7 W/m 9,7 C 10,1 C 0,3 km/h (0 Bft)
02.06.2015 06:00 10,7 C 98 % 1016,9 hPa 0,0 l/m 0,0 km/h (0 Bft) N 0,05 h 0,000 mm 0,0 UV-I 30 W/m 10,4 C 10,7 C 0,0 km/h (0 Bft)
02.06.2015 07:00 13,1 C 95 % 1017,0 hPa 0,0 l/m 5,2 km/h (1 Bft) SW 0,92 h 0,025 mm 0,8 UV-I 225 W/m 12,3 C 12,6 C 10,7 km/h (2 Bft)
02.06.2015 08:00 15,3 C 87 % 1017,4 hPa 0,0 l/m 8,0 km/h (2 Bft) SW 1,00 h 0,127 mm 1,3 UV-I 340 W/m 13,1 C 14,2 C 16,1 km/h (3 Bft)
02.06.2015 09:00 16,1 C 82 % 1017,8 hPa 0,0 l/m 4,8 km/h (1 Bft) W-SW 1,00 h 0,178 mm 2,1 UV-I 378 W/m 13,0 C 15,8 C 11,0 km/h (2 Bft)
02.06.2015 10:00 16,8 C 74 % 1017,9 hPa 0,0 l/m 7,0 km/h (2 Bft) W-SW 1,00 h 0,203 mm 2,4 UV-I 345 W/m 12,2 C 16,0 C 14,4 km/h (3 Bft)
02.06.2015 11:00 17,5 C 70 % 1017,9 hPa 0,0 l/m 7,8 km/h (2 Bft) W-SW 1,00 h 0,203 mm 3,2 UV-I 408 W/m 11,9 C 16,5 C 16,1 km/h (3 Bft)
02.06.2015 12:00 18,5 C 68 % 1017,6 hPa 0,0 l/m 6,3 km/h (2 Bft) SW 1,00 h 0,254 mm 3,9 UV-I 497 W/m 12,5 C 18,0 C 14,0 km/h (3 Bft)
02.06.2015 13:00 20,7 C 62 % 1017,2 hPa 0,0 l/m 10,0 km/h (2 Bft) S-SW 1,00 h 0,305 mm 5,7 UV-I 737 W/m 13,0 C 19,5 C 19,8 km/h (3 Bft)
02.06.2015 14:00 21,8 C 52 % 1016,9 hPa 0,0 l/m 12,0 km/h (2 Bft) W-SW 1,00 h 0,508 mm 4,8 UV-I 639 W/m 11,7 C 20,2 C 22,2 km/h (4 Bft)
02.06.2015 15:00 22,1 C 52 % 1016,5 hPa 0,0 l/m 8,7 km/h (2 Bft) W-SW 1,00 h 0,457 mm 3,5 UV-I 464 W/m 11,7 C 21,2 C 16,7 km/h (3 Bft)
02.06.2015 16:00 23,3 C 46 % 1016,4 hPa 0,0 l/m 11,9 km/h (2 Bft) SW 1,00 h 0,356 mm 3,4 UV-I 644 W/m 11,0 C 21,9 C 20,7 km/h (4 Bft)
02.06.2015 17:00 23,6 C 45 % 1016,3 hPa 0,0 l/m 10,4 km/h (2 Bft) W-SW 1,00 h 0,483 mm 1,9 UV-I 388 W/m 11,0 C 22,5 C 17,6 km/h (3 Bft)
02.06.2015 18:00 22,8 C 46 % 1016,3 hPa 0,0 l/m 8,5 km/h (2 Bft) W-SW 0,93 h 0,305 mm 0,9 UV-I 83 W/m 10,5 C 22,1 C 15,4 km/h (3 Bft)
02.06.2015 19:00 22,2 C 47 % 1016,3 hPa 0,0 l/m 4,0 km/h (1 Bft) SW 0,12 h 0,127 mm 0,6 UV-I 40 W/m 10,3 C 21,9 C 9,3 km/h (2 Bft)
02.06.2015 20:00 21,3 C 51 % 1016,6 hPa 0,0 l/m 1,7 km/h (1 Bft) W 0,00 h 0,076 mm 0,0 UV-I 20 W/m 10,7 C 21,3 C 5,1 km/h (1 Bft)
02.06.2015 21:00 19,1 C 59 % 1017,0 hPa 0,0 l/m 0,0 km/h (0 Bft) N 0,00 h 0,025 mm 0,0 UV-I 6 W/m 10,9 C 19,1 C 0,4 km/h (0 Bft)
02.06.2015 22:00 17,6 C 62 % 1017,3 hPa 0,0 l/m 0,3 km/h (0 Bft) N 0,00 h 0,000 mm 0,0 UV-I 0 W/m 10,3 C 17,6 C 1,1 km/h (0 Bft)
02.06.2015 23:00 15,8 C 70 % 1017,4 hPa 0,0 l/m 0,1 km/h (0 Bft) N 0,00 h 0,025 mm 0,0 UV-I 0 W/m 10,2 C 15,8 C 0,5 km/h (0 Bft)
03.06.2015 00:00 14,1 C 76 % 1017,6 hPa 0,0 l/m 0,0 km/h (0 Bft) N 0,00 h 0,025 mm 0,0 UV-I 0 W/m 9,9 C 14,1 C 0,0 km/h (0 Bft)
03.06.2015 01:00 12,8 C 83 % 1018,0 hPa 0,0 l/m 0,2 km/h (0 Bft) N 0,00 h 0,025 mm 0,0 UV-I 0 W/m 10,0 C 12,8 C 1,1 km/h (1 Bft)
03.06.2015 02:00 12,7 C 81 % 1018,0 hPa 0,0 l/m 0,1 km/h (0 Bft) N 0,00 h 0,025 mm 0,0 UV-I 0 W/m 9,6 C 12,7 C 0,7 km/h (0 Bft)
03.06.2015 03:00 11,6 C 86 % 1018,2 hPa 0,0 l/m 0,0 km/h (0 Bft) N 0,00 h 0,025 mm 0,0 UV-I 0 W/m 9,4 C 11,6 C 0,0 km/h (0 Bft)
03.06.2015 04:00 10,9 C 90 % 1018,1 hPa 0,0 l/m 0,0 km/h (0 Bft) N 0,00 h 0,000 mm 0,0 UV-I 0 W/m 9,3 C 10,9 C 0,0 km/h (0 Bft)
03.06.2015 05:00 10,7 C 90 % 1018,4 hPa 0,0 l/m 0,0 km/h (0 Bft) N 0,00 h 0,000 mm 0,0 UV-I 11 W/m 9,2 C 10,7 C 0,0 km/h (0 Bft)
03.06.2015 06:00 11,7 C 90 % 1018,6 hPa 0,0 l/m 0,1 km/h (0 Bft) N 0,00 h 0,000 mm 0,0 UV-I 24 W/m 10,1 C 11,7 C 0,2 km/h (0 Bft)
03.06.2015 07:00 16,3 C 76 % 1018,8 hPa 0,0 l/m 1,0 km/h (0 Bft) N 0,67 h 0,025 mm 1,0 UV-I 231 W/m 12,0 C 16,3 C 2,0 km/h (1 Bft)
03.06.2015 08:00 19,8 C 61 % 1019,1 hPa 0,0 l/m 5,6 km/h (2 Bft) SW 1,00 h 0,127 mm 1,8 UV-I 471 W/m 12,1 C 19,6 C 11,4 km/h (2 Bft)
03.06.2015 09:00 21,5 C 53 % 1019,3 hPa 0,0 l/m 10,2 km/h (2 Bft) SW 1,00 h 0,305 mm 3,1 UV-I 617 W/m 11,4 C 20,2 C 18,9 km/h (3 Bft)
03.06.2015 10:00 22,8 C 48 % 1019,4 hPa 0,0 l/m 11,2 km/h (2 Bft) SW 1,00 h 0,432 mm 4,2 UV-I 758 W/m 11,2 C 21,5 C 21,2 km/h (4 Bft)
03.06.2015 11:00 23,8 C 43 % 1019,6 hPa 0,0 l/m 13,3 km/h (3 Bft) W-SW 1,00 h 0,533 mm 5,7 UV-I 838 W/m 10,6 C 22,2 C 24,0 km/h (4 Bft)
03.06.2015 12:00 24,4 C 45 % 1019,6 hPa 0,0 l/m 11,5 km/h (2 Bft) W-SW 1,00 h 0,635 mm 6,6 UV-I 905 W/m 11,5 C 23,2 C 21,6 km/h (4 Bft)
03.06.2015 13:00 24,9 C 46 % 1019,5 hPa 0,0 l/m 7,9 km/h (2 Bft) W-SW 1,00 h 0,660 mm 5,6 UV-I 772 W/m 12,4 C 24,4 C 15,7 km/h (3 Bft)
03.06.2015 14:00 25,0 C 44 % 1019,6 hPa 0,0 l/m 9,3 km/h (2 Bft) W-SW 1,00 h 0,533 mm 4,3 UV-I 552 W/m 11,9 C 24,2 C 16,9 km/h (3 Bft)
03.06.2015 15:00 24,2 C 46 % 1019,8 hPa 0,0 l/m 11,9 km/h (2 Bft) W-SW 1,00 h 0,457 mm 3,2 UV-I 409 W/m 11,9 C 22,9 C 20,0 km/h (4 Bft)
03.06.2015 16:00 24,5 C 45 % 1019,7 hPa 0,0 l/m 10,1 km/h (2 Bft) W-SW 1,00 h 0,381 mm 2,6 UV-I 386 W/m 11,6 C 23,6 C 17,6 km/h (3 Bft)
03.06.2015 17:00 24,7 C 45 % 1019,7 hPa 0,0 l/m 8,0 km/h (2 Bft) W-SW 0,98 h 0,330 mm 1,9 UV-I 359 W/m 11,9 C 24,1 C 15,0 km/h (3 Bft)
03.06.2015 18:00 24,0 C 47 % 1019,6 hPa 0,0 l/m 5,2 km/h (1 Bft) W-SW 1,00 h 0,279 mm 0,9 UV-I 66 W/m 11,9 C 23,8 C 11,0 km/h (2 Bft)
03.06.2015 19:00 23,4 C 50 % 1019,9 hPa 0,0 l/m 6,3 km/h (2 Bft) W 0,48 h 0,102 mm 0,5 UV-I 49 W/m 12,3 C 23,0 C 12,1 km/h (2 Bft)
03.06.2015 20:00 22,0 C 54 % 1020,6 hPa 0,0 l/m 7,5 km/h (2 Bft) NW 0,00 h 0,076 mm 0,0 UV-I 17 W/m 12,1 C 21,5 C 12,6 km/h (3 Bft)
03.06.2015 21:00 20,1 C 58 % 1021,6 hPa 0,0 l/m 3,6 km/h (1 Bft) NW 0,00 h 0,076 mm 0,0 UV-I 5 W/m 11,6 C 20,0 C 6,9 km/h (2 Bft)
03.06.2015 22:00 17,7 C 66 % 1022,6 hPa 0,0 l/m 6,1 km/h (2 Bft) N 0,00 h 0,025 mm 0,0 UV-I 0 W/m 11,4 C 17,1 C 10,7 km/h (2 Bft)
03.06.2015 23:00 15,7 C 72 % 1023,4 hPa 0,0 l/m 3,6 km/h (1 Bft) N 0,00 h 0,051 mm 0,0 UV-I 0 W/m 10,7 C 15,5 C 7,9 km/h (2 Bft)
04.06.2015 00:00 14,3 C 76 % 1024,1 hPa 0,0 l/m 0,2 km/h (0 Bft) N 0,00 h 0,025 mm 0,0 UV-I 0 W/m 10,2 C 14,3 C 1,0 km/h (0 Bft)
04.06.2015 01:00 13,0 C 80 % 1024,6 hPa 0,0 l/m 0,3 km/h (0 Bft) N 0,00 h 0,025 mm 0,0 UV-I 0 W/m 9,6 C 13,0 C 0,9 km/h (0 Bft)
04.06.2015 02:00 11,9 C 82 % 1024,9 hPa 0,0 l/m 0,4 km/h (0 Bft) N 0,00 h 0,025 mm 0,0 UV-I 0 W/m 8,9 C 11,9 C 1,2 km/h (1 Bft)
04.06.2015 03:00 11,0 C 83 % 1025,2 hPa 0,0 l/m 0,2 km/h (0 Bft) N 0,00 h 0,025 mm 0,0 UV-I 0 W/m 8,2 C 11,0 C 0,4 km/h (0 Bft)
04.06.2015 04:00 10,2 C 87 % 1025,3 hPa 0,0 l/m 0,0 km/h (0 Bft) N 0,00 h 0,000 mm 0,0 UV-I 0 W/m 8,1 C 10,2 C 0,0 km/h (0 Bft)
04.06.2015 05:00 10,0 C 86 % 1025,7 hPa 0,0 l/m 0,3 km/h (0 Bft) N 0,00 h 0,000 mm 0,0 UV-I 18 W/m 7,8 C 10,0 C 0,8 km/h (0 Bft)
04.06.2015 06:00 10,7 C 82 % 1025,9 hPa 0,0 l/m 1,0 km/h (0 Bft) N 0,00 h 0,000 mm 0,0 UV-I 31 W/m 7,7 C 10,7 C 2,2 km/h (1 Bft)
04.06.2015 07:00 13,0 C 75 % 1026,1 hPa 0,0 l/m 1,8 km/h (1 Bft) N 0,67 h 0,025 mm 1,0 UV-I 219 W/m 8,6 C 13,0 C 5,1 km/h (1 Bft)
04.06.2015 08:00 15,9 C 65 % 1026,2 hPa 0,0 l/m 3,1 km/h (1 Bft) O-NO 1,00 h 0,127 mm 1,7 UV-I 459 W/m 9,2 C 15,8 C 8,0 km/h (2 Bft)
04.06.2015 09:00 17,3 C 59 % 1026,4 hPa 0,0 l/m 4,4 km/h (1 Bft) SO 1,00 h 0,254 mm 3,0 UV-I 628 W/m 9,2 C 17,1 C 9,7 km/h (2 Bft)
04.06.2015 10:00 19,1 C 57 % 1026,1 hPa 0,0 l/m 2,7 km/h (1 Bft) O-NO 1,00 h 0,356 mm 4,1 UV-I 756 W/m 10,4 C 19,0 C 7,0 km/h (2 Bft)
04.06.2015 11:00 20,5 C 55 % 1025,9 hPa 0,0 l/m 1,8 km/h (1 Bft) N 1,00 h 0,432 mm 5,7 UV-I 845 W/m 11,1 C 20,5 C 4,8 km/h (1 Bft)
04.06.2015 12:00 21,7 C 50 % 1025,7 hPa 0,0 l/m 3,0 km/h (1 Bft) S-SO 1,00 h 0,508 mm 6,5 UV-I 888 W/m 11,0 C 21,7 C 6,6 km/h (2 Bft)
04.06.2015 13:00 23,1 C 45 % 1025,3 hPa 0,0 l/m 2,2 km/h (1 Bft) O-NO 1,00 h 0,559 mm 6,6 UV-I 893 W/m 10,4 C 23,1 C 5,3 km/h (1 Bft)
04.06.2015 14:00 24,3 C 37 % 1024,8 hPa 0,0 l/m 1,3 km/h (1 Bft) N 1,00 h 0,559 mm 5,9 UV-I 854 W/m 8,7 C 24,3 C 3,9 km/h (1 Bft)
04.06.2015 15:00 24,4 C 36 % 1024,3 hPa 0,0 l/m 2,7 km/h (1 Bft) SO 1,00 h 0,533 mm 4,8 UV-I 763 W/m 8,2 C 24,4 C 5,6 km/h (2 Bft)
04.06.2015 16:00 25,0 C 35 % 1023,7 hPa 0,0 l/m 1,7 km/h (1 Bft) O-NO 1,00 h 0,508 mm 3,4 UV-I 634 W/m 8,5 C 25,0 C 4,4 km/h (1 Bft)
04.06.2015 17:00 24,5 C 34 % 1023,3 hPa 0,0 l/m 1,0 km/h (0 Bft) N 1,00 h 0,406 mm 1,8 UV-I 345 W/m 7,7 C 24,5 C 2,9 km/h (1 Bft)
04.06.2015 18:00 23,5 C 42 % 1022,8 hPa 0,0 l/m 3,0 km/h (1 Bft) N-NO 0,72 h 0,229 mm 1,0 UV-I 54 W/m 9,8 C 23,5 C 6,5 km/h (2 Bft)
04.06.2015 19:00 22,8 C 45 % 1022,6 hPa 0,0 l/m 1,5 km/h (1 Bft) N-NO 0,00 h 0,076 mm 0,0 UV-I 36 W/m 10,2 C 22,8 C 4,3 km/h (1 Bft)
04.06.2015 20:00 21,3 C 50 % 1022,9 hPa 0,0 l/m 0,4 km/h (0 Bft) N 0,00 h 0,051 mm 0,0 UV-I 16 W/m 10,5 C 21,3 C 1,8 km/h (1 Bft)
04.06.2015 21:00 19,2 C 56 % 1023,4 hPa 0,0 l/m 1,7 km/h (1 Bft) O-NO 0,00 h 0,025 mm 0,0 UV-I 5 W/m 10,2 C 19,2 C 4,7 km/h (1 Bft)
04.06.2015 22:00 17,4 C 61 % 1023,9 hPa 0,0 l/m 2,7 km/h (1 Bft) O 0,00 h 0,025 mm 0,0 UV-I 0 W/m 9,8 C 17,3 C 9,0 km/h (2 Bft)
04.06.2015 23:00 16,3 C 64 % 1024,2 hPa 0,0 l/m 2,2 km/h (1 Bft) O 0,00 h 0,051 mm 0,0 UV-I 0 W/m 9,5 C 16,3 C 6,7 km/h (2 Bft)
05.06.2015 00:00 15,4 C 65 % 1024,2 hPa 0,0 l/m 1,8 km/h (1 Bft) O 0,00 h 0,025 mm 0,0 UV-I 0 W/m 8,8 C 15,4 C 5,6 km/h (2 Bft)
05.06.2015 01:00 14,8 C 64 % 1024,0 hPa 0,0 l/m 4,1 km/h (1 Bft) O-NO 0,00 h 0,025 mm 0,0 UV-I 0 W/m 8,0 C 14,7 C 9,5 km/h (2 Bft)
05.06.2015 02:00 14,0 C 65 % 1023,9 hPa 0,0 l/m 4,8 km/h (1 Bft) O-NO 0,00 h 0,051 mm 0,0 UV-I 0 W/m 7,5 C 13,8 C 10,4 km/h (2 Bft)
05.06.2015 03:00 13,5 C 66 % 1023,6 hPa 0,0 l/m 5,0 km/h (1 Bft) O-NO 0,00 h 0,051 mm 0,0 UV-I 0 W/m 7,3 C 13,3 C 11,6 km/h (2 Bft)
05.06.2015 04:00 13,1 C 68 % 1023,4 hPa 0,0 l/m 2,8 km/h (1 Bft) O-NO 0,00 h 0,000 mm 0,0 UV-I 0 W/m 7,2 C 13,0 C 8,5 km/h (2 Bft)
05.06.2015 05:00 12,8 C 69 % 1023,3 hPa 0,0 l/m 1,7 km/h (1 Bft) O-NO 0,00 h 0,025 mm 0,0 UV-I 11 W/m 7,3 C 12,8 C 5,5 km/h (2 Bft)
05.06.2015 06:00 12,9 C 72 % 1023,4 hPa 0,0 l/m 0,4 km/h (0 Bft) N 0,00 h 0,025 mm 0,0 UV-I 24 W/m 8,0 C 12,9 C 1,6 km/h (1 Bft)
05.06.2015 07:00 15,7 C 67 % 1023,3 hPa 0,0 l/m 0,6 km/h (0 Bft) N 0,67 h 0,001 mm 1,0 UV-I 228 W/m 9,5 C 15,7 C 2,8 km/h (1 Bft)
05.06.2015 08:00 18,3 C 63 % 1023,1 hPa 0,0 l/m 0,9 km/h (0 Bft) SO 1,00 h 0,127 mm 1,8 UV-I 473 W/m 11,1 C 18,3 C 3,0 km/h (1 Bft)
05.06.2015 09:00 20,7 C 59 % 1023,1 hPa 0,0 l/m 1,1 km/h (1 Bft) SO 1,00 h 0,279 mm 3,0 UV-I 626 W/m 12,4 C 20,7 C 3,4 km/h (1 Bft)
05.06.2015 10:00 22,8 C 55 % 1022,8 hPa 0,0 l/m 2,5 km/h (1 Bft) O-NO 1,00 h 0,381 mm 4,1 UV-I 754 W/m 13,4 C 22,8 C 6,8 km/h (2 Bft)
05.06.2015 11:00 24,1 C 52 % 1022,5 hPa 0,0 l/m 3,3 km/h (1 Bft) SO 1,00 h 0,483 mm 5,6 UV-I 844 W/m 13,6 C 24,1 C 8,0 km/h (2 Bft)
05.06.2015 12:00 25,5 C 49 % 1022,2 hPa 0,0 l/m 2,8 km/h (1 Bft) O-NO 1,00 h 0,533 mm 6,3 UV-I 886 W/m 14,0 C 25,5 C 7,7 km/h (2 Bft)
05.06.2015 13:00 26,7 C 45 % 1021,6 hPa 0,0 l/m 3,7 km/h (1 Bft) O-NO 1,00 h 0,584 mm 6,4 UV-I 885 W/m 13,6 C 26,6 C 8,8 km/h (2 Bft)
05.06.2015 14:00 27,2 C 41 % 1021,0 hPa 0,0 l/m 3,0 km/h (1 Bft) O-NO 1,00 h 0,610 mm 5,7 UV-I 843 W/m 12,7 C 27,2 C 7,5 km/h (2 Bft)
05.06.2015 15:00 27,4 C 40 % 1020,5 hPa 0,0 l/m 3,0 km/h (1 Bft) O-NO 1,00 h 0,584 mm 4,7 UV-I 759 W/m 12,4 C 27,4 C 7,8 km/h (2 Bft)
05.06.2015 16:00 27,6 C 38 % 1019,9 hPa 0,0 l/m 2,5 km/h (1 Bft) O-SO 1,00 h 0,533 mm 3,3 UV-I 635 W/m 12,0 C 27,6 C 6,2 km/h (2 Bft)
05.06.2015 17:00 27,4 C 37 % 1019,3 hPa 0,0 l/m 2,3 km/h (1 Bft) SO 1,00 h 0,432 mm 1,8 UV-I 350 W/m 11,5 C 27,3 C 6,4 km/h (2 Bft)
05.06.2015 18:00 26,6 C 37 % 1018,8 hPa 0,0 l/m 2,0 km/h (1 Bft) SO 0,50 h 0,254 mm 1,0 UV-I 50 W/m 10,8 C 26,5 C 5,7 km/h (2 Bft)
05.06.2015 19:00 25,6 C 39 % 1018,5 hPa 0,0 l/m 1,3 km/h (1 Bft) O-SO 0,00 h 0,076 mm 0,0 UV-I 31 W/m 10,4 C 25,6 C 4,1 km/h (1 Bft)
05.06.2015 20:00 24,2 C 41 % 1018,4 hPa 0,0 l/m 0,1 km/h (0 Bft) N 0,00 h 0,051 mm 0,0 UV-I 15 W/m 10,2 C 24,2 C 0,7 km/h (0 Bft)
05.06.2015 21:00 22,0 C 46 % 1018,8 hPa 0,0 l/m 0,5 km/h (0 Bft) O 0,00 h 0,025 mm 0,0 UV-I 5 W/m 9,9 C 22,0 C 2,1 km/h (1 Bft)
05.06.2015 22:00 20,3 C 52 % 1019,1 hPa 0,0 l/m 2,9 km/h (1 Bft) O-NO 0,00 h 0,025 mm 0,0 UV-I 0 W/m 10,2 C 20,3 C 5,6 km/h (2 Bft)
05.06.2015 23:00 19,5 C 54 % 1018,9 hPa 0,0 l/m 4,3 km/h (1 Bft) O-NO 0,00 h 0,051 mm 0,0 UV-I 0 W/m 10,1 C 19,5 C 8,0 km/h (2 Bft)
06.06.2015 00:00 18,5 C 59 % 1018,8 hPa 0,0 l/m 1,9 km/h (1 Bft) O-NO 0,00 h 0,051 mm 0,0 UV-I 0 W/m 10,2 C 18,5 C 4,9 km/h (1 Bft)
06.06.2015 01:00 16,1 C 69 % 1018,8 hPa 0,0 l/m 0,4 km/h (0 Bft) N 0,00 h 0,051 mm 0,0 UV-I 0 W/m 10,5 C 16,1 C 1,6 km/h (1 Bft)
06.06.2015 02:00 14,7 C 77 % 1019,1 hPa 0,0 l/m 0,2 km/h (0 Bft) N 0,00 h 0,025 mm 0,0 UV-I 0 W/m 10,7 C 14,7 C 0,8 km/h (0 Bft)
06.06.2015 03:00 13,9 C 80 % 1019,2 hPa 0,0 l/m 0,3 km/h (0 Bft) N 0,00 h 0,025 mm 0,0 UV-I 0 W/m 10,5 C 13,9 C 0,9 km/h (0 Bft)
06.06.2015 04:00 12,9 C 84 % 1019,3 hPa 0,0 l/m 0,0 km/h (0 Bft) N 0,00 h 0,000 mm 0,0 UV-I 0 W/m 10,3 C 12,9 C 0,0 km/h (0 Bft)
06.06.2015 05:00 12,2 C 88 % 1019,5 hPa 0,0 l/m 0,0 km/h (0 Bft) N 0,00 h 0,000 mm 0,0 UV-I 11 W/m 10,2 C 12,2 C 0,0 km/h (0 Bft)
06.06.2015 06:00 13,4 C 87 % 1019,9 hPa 0,0 l/m 0,0 km/h (0 Bft) N 0,00 h 0,000 mm 0,0 UV-I 25 W/m 11,2 C 13,4 C 0,0 km/h (0 Bft)
06.06.2015 07:00 16,3 C 77 % 1020,0 hPa 0,0 l/m 0,0 km/h (0 Bft) N 0,67 h 0,025 mm 1,0 UV-I 218 W/m 12,3 C 16,3 C 0,0 km/h (0 Bft)
06.06.2015 08:00 20,2 C 66 % 1020,2 hPa 0,0 l/m 1,6 km/h (1 Bft) N 1,00 h 0,127 mm 1,7 UV-I 451 W/m 13,6 C 20,2 C 2,8 km/h (1 Bft)
06.06.2015 09:00 23,3 C 56 % 1020,3 hPa 0,0 l/m 1,1 km/h (1 Bft) N 1,00 h 0,279 mm 2,7 UV-I 594 W/m 13,9 C 23,3 C 3,4 km/h (1 Bft)
06.06.2015 10:00 25,8 C 47 % 1020,2 hPa 0,0 l/m 1,9 km/h (1 Bft) N 1,00 h 0,381 mm 3,8 UV-I 721 W/m 13,7 C 25,8 C 4,3 km/h (1 Bft)
06.06.2015 11:00 27,8 C 47 % 1020,0 hPa 0,0 l/m 1,8 km/h (1 Bft) N 1,00 h 0,483 mm 5,0 UV-I 797 W/m 15,3 C 27,8 C 4,5 km/h (1 Bft)
06.06.2015 12:00 29,4 C 45 % 1019,8 hPa 0,0 l/m 1,3 km/h (1 Bft) N 1,00 h 0,533 mm 5,7 UV-I 853 W/m 16,3 C 29,4 C 3,7 km/h (1 Bft)
06.06.2015 13:00 30,1 C 43 % 1019,6 hPa 0,0 l/m 2,9 km/h (1 Bft) S-SO 1,00 h 0,584 mm 5,6 UV-I 801 W/m 16,2 C 30,1 C 6,3 km/h (2 Bft)
06.06.2015 14:00 30,6 C 40 % 1019,4 hPa 0,0 l/m 5,0 km/h (1 Bft) S 1,00 h 0,559 mm 5,1 UV-I 768 W/m 15,5 C 30,6 C 10,4 km/h (2 Bft)
06.06.2015 15:00 31,0 C 38 % 1019,4 hPa 0,0 l/m 6,3 km/h (2 Bft) W-SW 1,00 h 0,559 mm 3,9 UV-I 677 W/m 15,1 C 30,9 C 11,7 km/h (2 Bft)
06.06.2015 16:00 30,5 C 40 % 1019,2 hPa 0,0 l/m 3,7 km/h (1 Bft) W-SW 1,00 h 0,508 mm 2,6 UV-I 464 W/m 15,2 C 30,5 C 7,8 km/h (2 Bft)
06.06.2015 17:00 30,5 C 38 % 1018,8 hPa 0,0 l/m 3,8 km/h (1 Bft) W 1,00 h 0,356 mm 1,7 UV-I 321 W/m 14,6 C 30,5 C 7,6 km/h (2 Bft)
06.06.2015 18:00 29,5 C 38 % 1018,7 hPa 0,0 l/m 2,5 km/h (1 Bft) W 1,00 h 0,254 mm 0,8 UV-I 89 W/m 13,5 C 29,5 C 6,1 km/h (2 Bft)
06.06.2015 19:00 28,5 C 40 % 1018,9 hPa 0,0 l/m 2,2 km/h (1 Bft) N-NW 1,00 h 0,102 mm 0,5 UV-I 72 W/m 13,6 C 28,5 C 5,7 km/h (2 Bft)
06.06.2015 20:00 27,0 C 47 % 1019,4 hPa 0,0 l/m 4,1 km/h (1 Bft) N 0,27 h 0,076 mm 0,0 UV-I 34 W/m 14,6 C 26,9 C 7,8 km/h (2 Bft)
06.06.2015 21:00 24,7 C 58 % 1020,0 hPa 0,0 l/m 1,9 km/h (1 Bft) N 0,00 h 0,076 mm 0,0 UV-I 6 W/m 15,8 C 24,7 C 5,2 km/h (1 Bft)
06.06.2015 22:00 23,4 C 64 % 1020,6 hPa 0,0 l/m 1,9 km/h (1 Bft) N 0,00 h 0,025 mm 0,0 UV-I 0 W/m 16,1 C 23,4 C 4,1 km/h (1 Bft)
06.06.2015 23:00 22,2 C 69 % 1021,1 hPa 0,0 l/m 1,0 km/h (0 Bft) N 0,00 h 0,051 mm 0,0 UV-I 0 W/m 16,3 C 22,2 C 2,6 km/h (1 Bft)
07.06.2015 00:00 21,1 C 77 % 1021,2 hPa 0,0 l/m 0,6 km/h (0 Bft) N 0,00 h 0,025 mm 0,0 UV-I 0 W/m 16,9 C 21,1 C 2,4 km/h (1 Bft)
07.06.2015 01:00 20,6 C 81 % 1021,5 hPa 0,0 l/m 0,7 km/h (0 Bft) N 0,00 h 0,025 mm 0,0 UV-I 0 W/m 17,3 C 20,6 C 2,0 km/h (1 Bft)
07.06.2015 02:00 20,2 C 83 % 1022,0 hPa 0,0 l/m 1,6 km/h (1 Bft) N 0,00 h 0,025 mm 0,0 UV-I 0 W/m 17,2 C 20,0 C 3,2 km/h (1 Bft)
07.06.2015 03:00 19,2 C 90 % 1023,1 hPa 2,4 l/m 2,8 km/h (1 Bft) N 0,00 h 0,025 mm 0,0 UV-I 0 W/m 17,5 C 19,0 C 5,9 km/h (2 Bft)
07.06.2015 04:00 17,8 C 94 % 1023,3 hPa 17,6 l/m 12,4 km/h (2 Bft) W-NW 0,00 h 0,000 mm 0,0 UV-I 0 W/m 16,8 C 15,4 C 20,2 km/h (4 Bft)
07.06.2015 05:00 17,2 C 95 % 1022,7 hPa 1,0 l/m 1,7 km/h (1 Bft) N 0,00 h 0,025 mm 0,0 UV-I 0 W/m 16,4 C 17,1 C 4,9 km/h (1 Bft)
07.06.2015 06:00 17,2 C 96 % 1022,3 hPa 0,2 l/m 0,8 km/h (0 Bft) N 0,00 h 0,000 mm 0,0 UV-I 15 W/m 16,5 C 17,2 C 2,4 km/h (1 Bft)
07.06.2015 07:00 17,3 C 96 % 1022,8 hPa 0,0 l/m 0,9 km/h (0 Bft) N 0,22 h 0,000 mm 0,5 UV-I 43 W/m 16,6 C 17,3 C 2,7 km/h (1 Bft)
07.06.2015 08:00 17,9 C 95 % 1023,0 hPa 0,0 l/m 2,0 km/h (1 Bft) N 1,00 h 0,025 mm 1,0 UV-I 174 W/m 17,1 C 17,9 C 5,0 km/h (1 Bft)
07.06.2015 09:00 19,0 C 91 % 1023,2 hPa 0,0 l/m 0,5 km/h (0 Bft) N 1,00 h 0,102 mm 2,1 UV-I 381 W/m 17,4 C 19,0 C 1,5 km/h (1 Bft)
07.06.2015 10:00 20,2 C 86 % 1023,3 hPa 0,0 l/m 1,9 km/h (1 Bft) N 1,00 h 0,229 mm 3,1 UV-I 403 W/m 17,7 C 20,2 C 4,2 km/h (1 Bft)
07.06.2015 11:00 21,6 C 80 % 1023,6 hPa 0,0 l/m 3,3 km/h (1 Bft) W-NW 1,00 h 0,254 mm 4,1 UV-I 576 W/m 18,0 C 21,5 C 7,1 km/h (2 Bft)
07.06.2015 12:00 22,7 C 75 % 1023,5 hPa 0,0 l/m 4,7 km/h (1 Bft) N-NW 1,00 h 0,356 mm 5,0 UV-I 671 W/m 18,1 C 22,5 C 8,6 km/h (2 Bft)
07.06.2015 13:00 22,7 C 74 % 1023,3 hPa 0,0 l/m 3,7 km/h (1 Bft) NW 1,00 h 0,432 mm 3,7 UV-I 434 W/m 17,9 C 22,7 C 7,4 km/h (2 Bft)
07.06.2015 14:00 23,9 C 71 % 1023,1 hPa 0,0 l/m 6,1 km/h (2 Bft) NW 1,00 h 0,279 mm 5,1 UV-I 715 W/m 18,3 C 23,6 C 10,9 km/h (2 Bft)
07.06.2015 15:00 24,4 C 69 % 1023,0 hPa 0,0 l/m 8,1 km/h (2 Bft) NW 1,00 h 0,457 mm 4,5 UV-I 734 W/m 18,4 C 23,8 C 13,9 km/h (3 Bft)
07.06.2015 16:00 23,4 C 70 % 1023,0 hPa 0,0 l/m 8,4 km/h (2 Bft) N-NW 1,00 h 0,483 mm 3,2 UV-I 635 W/m 17,7 C 22,6 C 14,2 km/h (3 Bft)
07.06.2015 17:00 23,0 C 71 % 1022,5 hPa 0,0 l/m 6,6 km/h (2 Bft) N-NW 1,00 h 0,432 mm 1,8 UV-I 349 W/m 17,5 C 22,6 C 12,1 km/h (2 Bft)
07.06.2015 18:00 21,4 C 76 % 1022,7 hPa 0,0 l/m 4,3 km/h (1 Bft) NW 1,00 h 0,229 mm 0,8 UV-I 110 W/m 17,0 C 21,2 C 8,2 km/h (2 Bft)
07.06.2015 19:00 21,0 C 77 % 1022,6 hPa 0,0 l/m 3,0 km/h (1 Bft) N 0,80 h 0,076 mm 0,5 UV-I 66 W/m 16,7 C 20,9 C 6,4 km/h (2 Bft)
07.06.2015 20:00 19,5 C 77 % 1022,4 hPa 0,0 l/m 4,4 km/h (1 Bft) N 0,00 h 0,051 mm 0,0 UV-I 21 W/m 15,3 C 19,3 C 8,6 km/h (2 Bft)
07.06.2015 21:00 18,3 C 81 % 1022,9 hPa 0,0 l/m 1,8 km/h (1 Bft) N 0,00 h 0,025 mm 0,0 UV-I 9 W/m 14,9 C 18,2 C 4,0 km/h (1 Bft)
07.06.2015 22:00 17,0 C 84 % 1023,1 hPa 0,0 l/m 6,9 km/h (2 Bft) N 0,00 h 0,000 mm 0,0 UV-I 0 W/m 14,2 C 16,4 C 12,0 km/h (2 Bft)
07.06.2015 23:00 15,9 C 87 % 1023,2 hPa 0,0 l/m 1,1 km/h (1 Bft) N 0,00 h 0,025 mm 0,0 UV-I 0 W/m 13,7 C 15,9 C 3,3 km/h (1 Bft)
Min-Datum _ 02.06.15 04.06.15 01.06.15 - 01.06.15 - - - - - 04.06.15 02.06.15 01.06.15
_ Min-Zeit 03:13 15:14 16:49 - 00:00 - - - - - 15:14 03:13 00:00
Minimum _ 8,7 C 29 % 1014,1 hPa - 0,0 km/h (0 Bft) - - - - - 5,2 C 8,7 C 0,0 km/h (0 Bft)
Max-Datum _ 06.06.15 02.06.15 04.06.15 07.06.15 02.06.15 - 06.06.15 03.06.15 01.06.15 03.06.15 07.06.15 06.06.15 02.06.15
_ Max-Zeit 16:19 03:31 08:56 04:15 14:00 - 09:34 13:00 12:39 13:12 13:00 16:19 14:00
Maximum _ 31,7 C 98 % 1026,4 hPa 17,6 l/m 27,4 km/h
W-SW (5 Bft)
- 0,07 h 0,660 mm 7,8 UV-I 1183 W/m 19,7 C 31,7 C 40,2 km/h
W-SW (6 Bft)
Durchschnitt _ 18,9 C 67 % 1020,1 hPa #22,6 l/m 3,2 km/h (1 Bft) N #83:12 h #30,062 mm 3,1 UV-I 362 W/m 12,0 C 18,7 C 6,6 km/h (2 Bft)